Time;durP1;ratioP1;P1;durP2;ratioP2;P2;SDS_P1;SDS_P2;PMS_P1;PMS_P2;Temp;Humidity;BMP_temperature;BMP_pressure;BME280_temperature;BME280_humidity;BME280_pressure;Samples;Min_cycle;Max_cycle;Signal;HPM_P1;HPM_P2
2023/02/15 00:00:12;;;;;;;;;;;4.50;99.90;;;;;;8387239;28;20628;-73
2023/02/15 00:04:15;;;;;;;;;;;4.50;99.90;;;;;;8382938;28;19951;-73
2023/02/15 00:08:17;;;;;;;;;;;4.40;99.90;;;;;;8397452;28;19924;-72
2023/02/15 00:12:19;;;;;;;;;;;4.30;99.90;;;;;;8373743;28;19932;-72
2023/02/15 00:16:20;;;;;;;;;;;4.30;99.90;;;;;;8374719;28;19933;-72
2023/02/15 00:20:22;;;;;;;;;;;4.30;99.90;;;;;;8372041;28;19929;-72
2023/02/15 00:24:23;;;;;;;;;;;4.30;99.90;;;;;;8392040;28;20341;-72
2023/02/15 00:28:25;;;;;;;;;;;4.30;99.90;;;;;;8386220;28;19924;-72
2023/02/15 00:32:27;;;;;;;;;;;4.20;99.90;;;;;;8386204;28;19976;-72
2023/02/15 00:36:28;;;;;;;;;;;4.20;99.90;;;;;;8382921;28;20265;-72
2023/02/15 00:40:30;;;;;;;;;;;4.20;99.90;;;;;;8369747;28;20378;-73
2023/02/15 00:44:31;;;;;;;;;;;4.10;99.90;;;;;;8383571;28;19931;-72
2023/02/15 00:48:33;;;;;;;;;;;4.10;99.90;;;;;;8386285;28;19925;-72
2023/02/15 00:52:35;;;;;;;;;;;4.20;99.90;;;;;;8381407;28;19960;-72
2023/02/15 00:56:36;;;;;;;;;;;4.20;99.90;;;;;;8384086;28;21424;-72
2023/02/15 01:00:39;;;;;;;;;;;4.10;99.90;;;;;;8376869;28;19932;-72
2023/02/15 01:04:41;;;;;;;;;;;4.00;99.90;;;;;;8369303;28;20362;-72
2023/02/15 01:08:43;;;;;;;;;;;4.00;99.90;;;;;;8389798;28;19924;-72
2023/02/15 01:12:45;;;;;;;;;;;4.00;99.90;;;;;;8365877;28;19959;-72
2023/02/15 01:16:47;;;;;;;;;;;4.00;99.90;;;;;;8369785;28;19933;-72
2023/02/15 01:20:48;;;;;;;;;;;4.00;99.90;;;;;;8386994;28;19931;-72
2023/02/15 01:24:50;;;;;;;;;;;4.00;99.90;;;;;;8393746;28;19924;-73
2023/02/15 01:28:52;;;;;;;;;;;3.90;99.90;;;;;;8392066;28;20303;-72
2023/02/15 01:32:53;;;;;;;;;;;3.90;99.90;;;;;;8394636;28;19924;-72
2023/02/15 01:36:55;;;;;;;;;;;3.90;99.90;;;;;;8397141;28;19924;-73
2023/02/15 01:45:22;;;;;;;;;;;3.90;99.90;;;;;;8388987;28;19939;-72
2023/02/15 01:49:26;;;;;;;;;;;3.80;99.90;;;;;;8398923;28;20054;-72
2023/02/15 01:53:27;;;;;;;;;;;3.80;99.90;;;;;;8382278;28;19940;-72
2023/02/15 01:57:29;;;;;;;;;;;3.70;99.90;;;;;;8384761;28;19928;-72
2023/02/15 02:01:31;;;;;;;;;;;3.70;99.90;;;;;;8387106;28;20386;-73
2023/02/15 02:05:32;;;;;;;;;;;3.60;99.90;;;;;;8396384;28;20387;-72
2023/02/15 02:09:35;;;;;;;;;;;3.60;99.90;;;;;;8396460;28;19983;-73
2023/02/15 02:13:37;;;;;;;;;;;3.60;99.90;;;;;;8396391;28;19924;-73
2023/02/15 02:17:39;;;;;;;;;;;3.60;99.90;;;;;;8386689;28;19946;-72
2023/02/15 02:27:17;;;;;;;;;;;3.50;99.90;;;;;;8391592;28;19970;-73
2023/02/15 02:31:38;;;;;;;;;;;3.60;99.90;;;;;;8374149;28;19935;-72
2023/02/15 02:35:45;;;;;;;;;;;3.70;99.90;;;;;;8391861;28;19928;-73
2023/02/15 02:40:04;;;;;;;;;;;3.70;99.90;;;;;;8388277;28;19954;-72
2023/02/15 02:44:05;;;;;;;;;;;3.80;99.90;;;;;;8386848;28;19928;-72
2023/02/15 02:48:14;;;;;;;;;;;3.90;99.90;;;;;;8391936;28;19931;-72
2023/02/15 02:52:34;;;;;;;;;;;4.00;99.90;;;;;;8390657;28;20007;-72
2023/02/15 02:56:43;;;;;;;;;;;4.00;99.90;;;;;;8396049;28;19935;-72
2023/02/15 03:01:07;;;;;;;;;;;4.00;99.90;;;;;;8373075;28;20380;-72
2023/02/15 03:05:14;;;;;;;;;;;4.10;99.90;;;;;;8368132;28;20059;-72
2023/02/15 03:09:21;;;;;;;;;;;4.10;99.90;;;;;;8391019;28;19932;-72
2023/02/15 03:13:23;;;;;;;;;;;4.00;99.90;;;;;;8389156;28;20394;-72
2023/02/15 03:17:27;;;;;;;;;;;4.00;99.90;;;;;;8388776;28;19975;-72
2023/02/15 03:21:40;;;;;;;;;;;4.00;99.90;;;;;;8373999;28;20003;-73
2023/02/15 03:25:43;;;;;;;;;;;3.90;99.90;;;;;;8384866;28;19968;-72
2023/02/15 03:29:46;;;;;;;;;;;4.00;99.90;;;;;;8386629;28;19924;-72
2023/02/15 03:33:54;;;;;;;;;;;4.00;99.90;;;;;;8397066;28;19928;-72
2023/02/15 03:37:59;;;;;;;;;;;4.00;99.90;;;;;;8372781;28;19924;-72
2023/02/15 03:42:01;;;;;;;;;;;4.00;99.90;;;;;;8375458;28;20248;-73
2023/02/15 03:46:23;;;;;;;;;;;4.00;99.90;;;;;;8390316;28;20340;-72
2023/02/15 03:54:48;;;;;;;;;;;4.00;99.90;;;;;;8389896;28;19967;-73
2023/02/15 04:03:42;;;;;;;;;;;3.90;99.90;;;;;;8386045;28;19924;-72
2023/02/15 04:07:44;;;;;;;;;;;3.90;99.90;;;;;;8348744;28;19956;-72
2023/02/15 04:11:45;;;;;;;;;;;3.90;99.90;;;;;;8388521;28;19931;-72
2023/02/15 04:16:05;;;;;;;;;;;3.80;99.90;;;;;;8389518;28;19928;-72
2023/02/15 04:28:48;;;;;;;;;;;3.70;99.90;;;;;;8377215;28;20392;-73
2023/02/15 04:32:51;;;;;;;;;;;3.70;99.90;;;;;;8388697;28;19928;-72
2023/02/15 04:36:52;;;;;;;;;;;3.70;99.90;;;;;;8390326;28;19924;-72
2023/02/15 04:40:54;;;;;;;;;;;3.60;99.90;;;;;;8364279;28;19967;-72
2023/02/15 04:44:55;;;;;;;;;;;3.60;99.90;;;;;;8374636;28;19924;-72
2023/02/15 04:48:57;;;;;;;;;;;3.60;99.90;;;;;;8386050;28;19971;-72
2023/02/15 04:52:59;;;;;;;;;;;3.50;99.90;;;;;;8396499;28;20871;-73
2023/02/15 04:57:00;;;;;;;;;;;3.50;99.90;;;;;;8391634;28;19935;-72
2023/02/15 05:01:02;;;;;;;;;;;3.40;99.90;;;;;;8392610;28;19963;-72
2023/02/15 05:05:04;;;;;;;;;;;3.40;99.90;;;;;;8385034;28;19929;-72
2023/02/15 05:09:06;;;;;;;;;;;3.40;99.90;;;;;;8381817;28;19924;-72
2023/02/15 05:13:08;;;;;;;;;;;3.30;99.90;;;;;;8393823;28;19979;-73
2023/02/15 05:17:09;;;;;;;;;;;3.30;99.90;;;;;;8394042;28;20292;-73
2023/02/15 05:21:11;;;;;;;;;;;3.30;99.90;;;;;;8369273;28;19960;-73
2023/02/15 05:29:33;;;;;;;;;;;3.20;99.90;;;;;;8389338;28;19925;-72
2023/02/15 05:33:34;;;;;;;;;;;3.20;99.90;;;;;;8388401;28;19976;-72
2023/02/15 05:47:37;;;;;;;;;;;3.10;99.90;;;;;;8383368;28;19923;-72
2023/02/15 05:51:38;;;;;;;;;;;3.10;99.90;;;;;;8383298;28;20401;-72
2023/02/15 05:55:40;;;;;;;;;;;3.00;99.90;;;;;;8377183;28;20019;-72
2023/02/15 05:59:42;;;;;;;;;;;3.00;99.90;;;;;;8388711;28;19944;-72
2023/02/15 06:13:51;;;;;;;;;;;2.90;99.90;;;;;;8395528;28;19920;-72
2023/02/15 06:17:52;;;;;;;;;;;2.80;99.90;;;;;;8395322;28;19932;-73
2023/02/15 06:21:54;;;;;;;;;;;2.80;99.90;;;;;;8392776;28;20322;-72
2023/02/15 06:25:55;;;;;;;;;;;2.80;99.90;;;;;;8393203;28;19924;-72
2023/02/15 06:29:57;;;;;;;;;;;2.70;99.90;;;;;;8395495;28;20391;-72
2023/02/15 06:34:02;;;;;;;;;;;2.70;99.90;;;;;;8390570;28;20015;-72
2023/02/15 06:38:04;;;;;;;;;;;2.70;99.90;;;;;;8398660;28;20011;-72
2023/02/15 06:42:05;;;;;;;;;;;2.60;99.90;;;;;;8366280;28;19935;-72
2023/02/15 06:46:07;;;;;;;;;;;2.60;99.90;;;;;;8394853;28;19924;-72
2023/02/15 06:50:10;;;;;;;;;;;2.60;99.90;;;;;;8392757;28;19928;-72
2023/02/15 06:54:11;;;;;;;;;;;2.60;99.90;;;;;;8402932;28;20432;-72
2023/02/15 06:58:13;;;;;;;;;;;2.60;99.90;;;;;;8395818;28;20390;-72
2023/02/15 07:02:14;;;;;;;;;;;2.50;99.90;;;;;;8398935;28;19925;-72
2023/02/15 07:06:16;;;;;;;;;;;2.50;99.90;;;;;;8378604;28;19924;-72
2023/02/15 07:10:18;;;;;;;;;;;2.50;99.90;;;;;;8377142;28;19970;-73
2023/02/15 07:14:20;;;;;;;;;;;2.50;99.90;;;;;;8384500;28;20394;-72
2023/02/15 07:18:21;;;;;;;;;;;2.50;99.90;;;;;;8397309;28;20388;-72
2023/02/15 07:22:23;;;;;;;;;;;2.50;99.90;;;;;;8393522;28;19931;-72
2023/02/15 07:26:24;;;;;;;;;;;2.50;99.90;;;;;;8392300;28;19932;-72
2023/02/15 07:30:27;;;;;;;;;;;2.50;99.90;;;;;;8375140;28;20375;-72
2023/02/15 07:34:29;;;;;;;;;;;2.60;99.90;;;;;;8398771;28;20010;-73
2023/02/15 07:38:32;;;;;;;;;;;2.60;99.90;;;;;;8392786;28;19924;-73
2023/02/15 07:42:34;;;;;;;;;;;2.70;99.90;;;;;;8378229;28;19974;-72
2023/02/15 07:46:35;;;;;;;;;;;2.70;99.90;;;;;;8389990;28;20416;-72
2023/02/15 07:50:37;;;;;;;;;;;2.80;99.90;;;;;;8392426;28;20351;-72
2023/02/15 07:54:38;;;;;;;;;;;2.90;99.90;;;;;;8397465;28;19929;-73
2023/02/15 07:58:52;;;;;;;;;;;3.00;99.90;;;;;;8395390;28;19951;-72
2023/02/15 08:03:13;;;;;;;;;;;3.10;99.90;;;;;;8372295;28;19924;-72
2023/02/15 08:07:14;;;;;;;;;;;3.20;99.90;;;;;;8397495;28;19928;-72
2023/02/15 08:11:32;;;;;;;;;;;3.30;99.90;;;;;;8392818;28;19979;-72
2023/02/15 08:15:34;;;;;;;;;;;3.40;99.90;;;;;;8398643;28;19924;-72
2023/02/15 08:19:35;;;;;;;;;;;3.50;99.90;;;;;;8373403;28;19974;-72
2023/02/15 08:23:37;;;;;;;;;;;3.60;99.90;;;;;;8393031;28;20277;-73
2023/02/15 08:27:38;;;;;;;;;;;3.60;99.90;;;;;;8382418;28;19963;-73
2023/02/15 08:31:41;;;;;;;;;;;3.70;99.90;;;;;;8398804;28;19954;-72
2023/02/15 08:35:43;;;;;;;;;;;3.90;99.90;;;;;;8391555;28;20383;-72
2023/02/15 08:39:45;;;;;;;;;;;4.10;99.90;;;;;;8393370;28;20022;-72
2023/02/15 08:43:48;;;;;;;;;;;4.30;99.90;;;;;;8396375;28;20318;-72
2023/02/15 08:47:50;;;;;;;;;;;4.40;99.90;;;;;;8376574;28;19924;-72
2023/02/15 08:56:55;;;;;;;;;;;4.70;99.90;;;;;;8389772;28;19942;-72
2023/02/15 09:00:57;;;;;;;;;;;4.80;99.90;;;;;;8404945;28;19929;-72
2023/02/15 09:10:02;;;;;;;;;;;5.00;99.90;;;;;;8396419;28;19927;-72
2023/02/15 09:14:05;;;;;;;;;;;5.10;99.90;;;;;;8382946;28;20468;-72
2023/02/15 09:18:07;;;;;;;;;;;5.10;99.90;;;;;;8390064;28;19924;-72
2023/02/15 09:22:09;;;;;;;;;;;5.20;99.90;;;;;;8389392;28;19939;-72
2023/02/15 09:26:12;;;;;;;;;;;5.40;99.90;;;;;;8388851;28;20318;-72
2023/02/15 09:30:13;;;;;;;;;;;5.60;99.90;;;;;;8393558;28;20372;-72
2023/02/15 09:34:17;;;;;;;;;;;5.70;99.90;;;;;;8393876;28;19928;-72
2023/02/15 09:38:18;;;;;;;;;;;5.90;99.90;;;;;;8373848;28;19935;-73
2023/02/15 09:42:20;;;;;;;;;;;6.20;99.90;;;;;;8369994;28;19928;-72
2023/02/15 09:46:37;;;;;;;;;;;6.50;99.90;;;;;;8394251;28;19936;-72
2023/02/15 09:50:53;;;;;;;;;;;6.70;99.90;;;;;;8400226;28;20265;-72
2023/02/15 09:55:10;;;;;;;;;;;7.00;99.90;;;;;;8392972;28;19964;-72
2023/02/15 09:59:33;;;;;;;;;;;7.40;99.90;;;;;;8381058;28;19932;-72
2023/02/15 10:03:41;;;;;;;;;;;7.60;99.90;;;;;;8391029;28;19925;-72
2023/02/15 10:07:51;;;;;;;;;;;7.80;99.90;;;;;;8400771;28;19931;-72
2023/02/15 10:11:53;;;;;;;;;;;7.90;99.90;;;;;;8393612;28;19993;-70
2023/02/15 10:15:55;;;;;;;;;;;8.10;99.90;;;;;;8392828;28;19971;-70
2023/02/15 10:20:10;;;;;;;;;;;8.10;99.90;;;;;;8395747;28;19928;-70
2023/02/15 10:24:23;;;;;;;;;;;8.30;99.90;;;;;;8393326;28;19924;-70
2023/02/15 10:28:33;;;;;;;;;;;8.60;99.90;;;;;;8401891;28;20018;-70
2023/02/15 10:32:58;;;;;;;;;;;8.90;99.90;;;;;;8385474;28;19925;-70
2023/02/15 10:37:06;;;;;;;;;;;9.30;99.90;;;;;;8356609;28;20482;-70
2023/02/15 10:41:26;;;;;;;;;;;9.80;99.90;;;;;;8387156;28;19931;-70
2023/02/15 10:45:31;;;;;;;;;;;10.30;99.90;;;;;;8392468;28;20333;-70
2023/02/15 10:49:48;;;;;;;;;;;10.70;99.90;;;;;;8386850;28;19934;-70
2023/02/15 10:53:59;;;;;;;;;;;10.80;99.90;;;;;;8385756;28;19938;-70
2023/02/15 10:58:05;;;;;;;;;;;10.70;99.90;;;;;;8372554;28;19971;-70
2023/02/15 11:02:17;;;;;;;;;;;11.00;99.90;;;;;;8393336;28;19939;-70
2023/02/15 11:06:20;;;;;;;;;;;11.30;99.90;;;;;;8391292;28;19928;-70
2023/02/15 11:10:26;;;;;;;;;;;11.60;99.90;;;;;;8393013;28;19929;-70
2023/02/15 11:14:34;;;;;;;;;;;11.90;99.90;;;;;;8391622;28;19977;-70
2023/02/15 11:18:41;;;;;;;;;;;12.10;99.90;;;;;;8394747;28;19931;-70
2023/02/15 11:22:46;;;;;;;;;;;12.20;99.90;;;;;;8395705;28;19929;-70
2023/02/15 11:26:51;;;;;;;;;;;12.30;99.90;;;;;;8382058;28;19930;-70
2023/02/15 11:30:54;;;;;;;;;;;12.10;99.90;;;;;;8397485;28;20367;-70
2023/02/15 11:35:02;;;;;;;;;;;12.20;99.90;;;;;;8393136;28;19925;-70
2023/02/15 11:39:11;;;;;;;;;;;12.40;99.90;;;;;;8381179;28;20016;-69
2023/02/15 11:43:20;;;;;;;;;;;12.80;99.90;;;;;;8362794;28;19972;-70
2023/02/15 11:47:22;;;;;;;;;;;13.10;99.90;;;;;;8344846;28;19941;-70
2023/02/15 11:51:25;;;;;;;;;;;13.30;99.90;;;;;;8366301;28;19924;-70
2023/02/15 11:55:28;;;;;;;;;;;13.80;99.90;;;;;;8350081;28;19950;-70
2023/02/15 11:59:32;;;;;;;;;;;14.20;99.90;;;;;;8364989;28;19942;-70
2023/02/15 12:03:46;;;;;;;;;;;14.60;99.90;;;;;;8352905;28;20323;-70
2023/02/15 12:08:09;;;;;;;;;;;14.80;99.90;;;;;;8363659;28;19925;-70
2023/02/15 12:12:29;;;;;;;;;;;15.10;99.90;;;;;;8364767;28;20403;-70
2023/02/15 12:16:33;;;;;;;;;;;15.30;99.90;;;;;;8345518;28;19970;-70
2023/02/15 12:20:36;;;;;;;;;;;15.30;99.90;;;;;;8355042;28;19936;-70
2023/02/15 12:24:43;;;;;;;;;;;15.10;99.90;;;;;;8359566;28;19931;-70
2023/02/15 12:28:51;;;;;;;;;;;15.00;99.90;;;;;;8364541;28;20403;-70
2023/02/15 12:32:56;;;;;;;;;;;14.90;99.90;;;;;;8371980;28;20051;-70
2023/02/15 12:37:00;;;;;;;;;;;15.00;99.90;;;;;;8365161;28;20458;-70
2023/02/15 12:41:03;;;;;;;;;;;15.20;99.90;;;;;;8358660;28;20285;-70
2023/02/15 12:45:19;;;;;;;;;;;15.30;99.90;;;;;;8363696;28;19935;-70
2023/02/15 12:49:21;;;;;;;;;;;15.60;99.90;;;;;;8367135;28;20036;-70
2023/02/15 12:53:30;;;;;;;;;;;15.80;99.90;;;;;;8364925;28;19925;-70
2023/02/15 12:57:33;;;;;;;;;;;15.90;99.90;;;;;;8346088;28;20411;-70
2023/02/15 13:01:36;;;;;;;;;;;15.60;99.90;;;;;;8362163;28;19929;-70
2023/02/15 13:05:39;;;;;;;;;;;15.40;99.90;;;;;;8363585;28;20372;-70
2023/02/15 13:09:41;;;;;;;;;;;15.10;99.90;;;;;;8363696;28;19929;-70
2023/02/15 13:13:56;;;;;;;;;;;14.90;99.90;;;;;;8374605;28;20395;-70
2023/02/15 13:17:59;;;;;;;;;;;14.80;99.90;;;;;;8364416;28;19935;-70
2023/02/15 13:22:02;;;;;;;;;;;14.90;99.90;;;;;;8365857;28;19940;-70
2023/02/15 13:26:04;;;;;;;;;;;14.80;99.90;;;;;;8371445;28;19928;-70
2023/02/15 13:30:25;;;;;;;;;;;14.60;99.90;;;;;;8369828;28;21627;-70
2023/02/15 13:34:30;;;;;;;;;;;14.40;99.90;;;;;;8351963;28;20548;-70
2023/02/15 13:38:50;;;;;;;;;;;14.10;99.90;;;;;;8367953;28;20214;-70
2023/02/15 13:43:02;;;;;;;;;;;13.90;99.90;;;;;;8366265;28;19936;-70
2023/02/15 13:47:26;;;;;;;;;;;13.80;99.90;;;;;;8362014;28;19978;-70
2023/02/15 13:51:43;;;;;;;;;;;13.70;99.90;;;;;;8365558;28;20262;-70
2023/02/15 13:55:51;;;;;;;;;;;13.70;99.90;;;;;;8366775;28;19935;-70
2023/02/15 13:59:59;;;;;;;;;;;13.60;99.90;;;;;;8369920;28;20333;-69
2023/02/15 14:04:00;;;;;;;;;;;13.50;99.90;;;;;;8367607;28;19943;-70
2023/02/15 14:08:07;;;;;;;;;;;13.40;99.90;;;;;;8365306;28;20608;-70
2023/02/15 14:12:09;;;;;;;;;;;13.30;99.90;;;;;;8364916;28;19935;-70
2023/02/15 14:16:13;;;;;;;;;;;13.20;99.90;;;;;;8363877;28;19983;-70
2023/02/15 14:20:25;;;;;;;;;;;13.20;99.90;;;;;;8365609;28;19933;-70
2023/02/15 14:24:27;;;;;;;;;;;13.10;99.90;;;;;;8368714;28;19974;-70
2023/02/15 14:28:36;;;;;;;;;;;13.10;99.90;;;;;;8364307;28;19931;-70
2023/02/15 14:32:43;;;;;;;;;;;13.10;99.90;;;;;;8360976;28;20399;-70
2023/02/15 14:36:45;;;;;;;;;;;13.10;99.90;;;;;;8366379;28;20300;-70
2023/02/15 14:41:01;;;;;;;;;;;13.10;99.90;;;;;;8361921;28;20031;-69
2023/02/15 14:45:03;;;;;;;;;;;13.10;99.90;;;;;;8369303;28;19935;-70
2023/02/15 14:49:18;;;;;;;;;;;13.10;99.90;;;;;;8359529;28;19932;-70
2023/02/15 14:53:31;;;;;;;;;;;13.10;99.90;;;;;;8370478;28;19945;-70
2023/02/15 14:57:34;;;;;;;;;;;13.10;99.90;;;;;;8349913;28;19925;-70
2023/02/15 15:01:38;;;;;;;;;;;13.10;99.90;;;;;;8359963;28;19929;-69
2023/02/15 15:05:48;;;;;;;;;;;13.00;99.90;;;;;;8372136;28;19984;-70
2023/02/15 15:10:02;;;;;;;;;;;12.90;99.90;;;;;;8363364;28;20032;-70
2023/02/15 15:14:04;;;;;;;;;;;12.90;99.90;;;;;;8357602;28;19936;-70
2023/02/15 15:18:10;;;;;;;;;;;12.90;99.90;;;;;;8338221;28;19933;-69
2023/02/15 15:27:45;;;;;;;;;;;12.70;99.90;;;;;;8321817;28;19990;-70
2023/02/15 15:31:52;;;;;;;;;;;12.60;99.90;;;;;;8358826;28;19939;-70
2023/02/15 15:36:13;;;;;;;;;;;12.60;99.90;;;;;;8359289;28;19967;-70
2023/02/15 15:40:21;;;;;;;;;;;12.50;99.90;;;;;;8360451;28;19929;-69
2023/02/15 15:44:41;;;;;;;;;;;12.50;99.90;;;;;;8363809;28;19935;-69
2023/02/15 15:48:43;;;;;;;;;;;12.50;99.90;;;;;;8354500;28;19933;-70
2023/02/15 15:52:55;;;;;;;;;;;12.40;99.90;;;;;;8351500;28;20372;-70
2023/02/15 15:56:59;;;;;;;;;;;12.40;99.90;;;;;;8354679;28;20611;-70
2023/02/15 16:01:03;;;;;;;;;;;12.40;99.90;;;;;;8353822;28;19940;-69
2023/02/15 16:05:06;;;;;;;;;;;12.30;99.90;;;;;;8363418;28;19967;-69
2023/02/15 16:09:11;;;;;;;;;;;12.30;99.90;;;;;;8360768;28;19932;-69
2023/02/15 16:13:13;;;;;;;;;;;12.30;99.90;;;;;;8356649;28;19975;-70
2023/02/15 16:17:19;;;;;;;;;;;12.30;99.90;;;;;;8354634;28;19925;-69
2023/02/15 16:21:26;;;;;;;;;;;12.20;99.90;;;;;;8363691;28;19932;-70
2023/02/15 16:25:28;;;;;;;;;;;12.10;99.90;;;;;;8362704;28;19924;-69
2023/02/15 16:29:31;;;;;;;;;;;12.00;99.90;;;;;;8360664;28;20281;-69
2023/02/15 16:33:37;;;;;;;;;;;11.90;99.90;;;;;;8354707;28;19935;-69
2023/02/15 16:37:38;;;;;;;;;;;11.80;99.90;;;;;;8359746;28;19972;-70
2023/02/15 16:41:45;;;;;;;;;;;11.70;99.90;;;;;;8360015;28;19960;-70
2023/02/15 16:45:47;;;;;;;;;;;11.60;99.90;;;;;;8360463;28;19925;-70
2023/02/15 16:49:50;;;;;;;;;;;11.40;99.90;;;;;;8362341;28;19924;-69
2023/02/15 16:53:52;;;;;;;;;;;11.30;99.90;;;;;;8357784;28;20000;-69
2023/02/15 16:57:56;;;;;;;;;;;11.10;99.90;;;;;;8364184;28;19936;-69
2023/02/15 17:01:58;;;;;;;;;;;11.00;99.90;;;;;;8358689;28;19947;-69
2023/02/15 17:06:00;;;;;;;;;;;10.80;99.90;;;;;;8354272;28;20304;-70
2023/02/15 17:10:02;;;;;;;;;;;10.70;99.90;;;;;;8366452;28;22471;-69
2023/02/15 17:14:03;;;;;;;;;;;10.50;99.90;;;;;;8350098;28;20004;-70
2023/02/15 17:18:09;;;;;;;;;;;10.40;99.90;;;;;;8366194;28;19935;-70
2023/02/15 17:22:17;;;;;;;;;;;10.40;99.90;;;;;;8367411;28;20019;-70
2023/02/15 17:26:30;;;;;;;;;;;10.30;99.90;;;;;;8359031;28;19940;-69
2023/02/15 17:30:32;;;;;;;;;;;10.20;99.90;;;;;;8356392;28;20040;-70
2023/02/15 17:34:40;;;;;;;;;;;10.10;99.90;;;;;;8346340;28;19928;-70
2023/02/15 17:38:57;;;;;;;;;;;10.10;99.90;;;;;;8369514;28;19998;-69
2023/02/15 17:42:59;;;;;;;;;;;10.00;99.90;;;;;;8354767;28;19933;-69
2023/02/15 17:47:00;;;;;;;;;;;9.90;99.90;;;;;;8365056;28;19998;-69
2023/02/15 17:51:04;;;;;;;;;;;9.80;99.90;;;;;;8338001;28;20277;-70
2023/02/15 17:59:33;;;;;;;;;;;9.70;99.90;;;;;;8357865;28;19929;-69
2023/02/15 18:12:21;;;;;;;;;;;9.50;99.90;;;;;;8363788;28;19944;-70
2023/02/15 18:16:25;;;;;;;;;;;9.40;99.90;;;;;;8354507;28;19939;-69
2023/02/15 18:20:30;;;;;;;;;;;9.40;99.90;;;;;;8358683;28;19940;-70
2023/02/15 18:24:31;;;;;;;;;;;9.30;99.90;;;;;;8363355;28;19931;-69
2023/02/15 18:28:33;;;;;;;;;;;9.20;99.90;;;;;;8366529;28;20366;-69
2023/02/15 18:32:36;;;;;;;;;;;9.10;99.90;;;;;;8359139;28;19943;-69
2023/02/15 18:36:41;;;;;;;;;;;9.10;99.90;;;;;;8366442;28;19936;-70
2023/02/15 18:40:43;;;;;;;;;;;9.10;99.90;;;;;;8360766;28;20015;-70
2023/02/15 18:44:45;;;;;;;;;;;9.00;99.90;;;;;;8369739;28;19931;-69
2023/02/15 18:48:46;;;;;;;;;;;9.00;99.90;;;;;;8366171;28;19924;-70
2023/02/15 18:52:51;;;;;;;;;;;8.90;99.90;;;;;;8365033;28;19968;-70
2023/02/15 18:56:57;;;;;;;;;;;8.80;99.90;;;;;;8344992;28;20026;-70
2023/02/15 19:00:59;;;;;;;;;;;8.80;99.90;;;;;;8378476;28;19950;-70
2023/02/15 19:05:01;;;;;;;;;;;8.80;99.90;;;;;;8358999;28;19939;-69
2023/02/15 19:09:03;;;;;;;;;;;8.80;99.90;;;;;;8361831;28;20291;-70
2023/02/15 19:13:08;;;;;;;;;;;8.80;99.90;;;;;;8362055;28;19929;-70
2023/02/15 19:17:14;;;;;;;;;;;8.80;99.90;;;;;;8373612;28;19925;-70
2023/02/15 19:21:17;;;;;;;;;;;8.80;99.90;;;;;;8360010;28;19975;-70
2023/02/15 19:25:20;;;;;;;;;;;8.70;99.90;;;;;;8368140;28;19924;-70
2023/02/15 19:29:24;;;;;;;;;;;8.70;99.90;;;;;;8351762;28;19929;-70
2023/02/15 19:33:26;;;;;;;;;;;8.70;99.90;;;;;;8389861;28;20012;-70
2023/02/15 19:37:32;;;;;;;;;;;8.70;99.90;;;;;;8370368;28;20015;-70
2023/02/15 19:41:33;;;;;;;;;;;8.70;99.90;;;;;;8366945;28;20027;-70
2023/02/15 19:45:35;;;;;;;;;;;8.60;99.90;;;;;;8364560;28;19925;-70
2023/02/15 19:49:36;;;;;;;;;;;8.50;99.90;;;;;;8360888;28;19950;-70
2023/02/15 19:53:39;;;;;;;;;;;8.40;99.90;;;;;;8370019;28;20399;-69
2023/02/15 19:57:41;;;;;;;;;;;8.40;99.90;;;;;;8362220;28;19967;-70
2023/02/15 20:01:42;;;;;;;;;;;8.30;99.90;;;;;;8365271;28;19934;-70
2023/02/15 20:05:44;;;;;;;;;;;8.20;99.90;;;;;;8361176;28;19983;-70
2023/02/15 20:09:46;;;;;;;;;;;8.20;99.90;;;;;;8365061;28;19925;-70
2023/02/15 20:13:47;;;;;;;;;;;8.10;99.90;;;;;;8350368;28;19928;-70
2023/02/15 20:17:49;;;;;;;;;;;8.10;99.90;;;;;;8350701;28;19935;-70
2023/02/15 20:21:53;;;;;;;;;;;8.10;99.90;;;;;;8343396;28;20398;-70
2023/02/15 20:26:00;;;;;;;;;;;8.20;99.90;;;;;;8356756;28;19982;-70
2023/02/15 20:30:01;;;;;;;;;;;8.10;99.90;;;;;;8347928;28;19936;-70
2023/02/15 20:34:03;;;;;;;;;;;8.10;99.90;;;;;;8364660;28;19936;-69
2023/02/15 20:38:13;;;;;;;;;;;8.10;99.90;;;;;;8350031;28;19925;-69
2023/02/15 20:42:15;;;;;;;;;;;8.10;99.90;;;;;;8360561;28;19929;-70
2023/02/15 20:46:17;;;;;;;;;;;8.00;99.90;;;;;;8359194;28;20098;-70
2023/02/15 20:50:26;;;;;;;;;;;8.00;99.90;;;;;;8358157;28;19925;-69
2023/02/15 20:54:29;;;;;;;;;;;8.00;99.90;;;;;;8364688;28;19928;-69
2023/02/15 20:58:31;;;;;;;;;;;7.90;99.90;;;;;;8366174;28;19933;-70
2023/02/15 21:02:32;;;;;;;;;;;7.90;99.90;;;;;;8369203;28;20038;-70
2023/02/15 21:06:34;;;;;;;;;;;7.80;99.90;;;;;;8363235;28;19929;-70
2023/02/15 21:10:36;;;;;;;;;;;7.80;99.90;;;;;;8356885;28;20024;-70
2023/02/15 21:14:38;;;;;;;;;;;7.80;99.90;;;;;;8360603;28;20040;-69
2023/02/15 21:18:41;;;;;;;;;;;7.70;99.90;;;;;;8359721;28;19925;-70
2023/02/15 21:22:42;;;;;;;;;;;7.70;99.90;;;;;;8357848;28;19933;-69
2023/02/15 21:26:45;;;;;;;;;;;7.60;99.90;;;;;;8355444;28;19985;-70
2023/02/15 21:30:47;;;;;;;;;;;7.60;99.90;;;;;;8358875;28;20171;-70
2023/02/15 21:34:49;;;;;;;;;;;7.60;99.90;;;;;;8340597;28;20019;-69
2023/02/15 21:38:52;;;;;;;;;;;7.60;99.90;;;;;;8356587;28;20352;-70
2023/02/15 21:56:01;;;;;;;;;;;7.40;99.90;;;;;;8371848;28;20384;-69
2023/02/15 22:00:03;;;;;;;;;;;7.40;99.90;;;;;;8367044;28;19960;-70
2023/02/15 22:04:09;;;;;;;;;;;7.30;99.90;;;;;;8386025;28;20010;-69
2023/02/15 22:08:12;;;;;;;;;;;7.20;99.90;;;;;;8389352;28;19925;-70
2023/02/15 22:17:19;;;;;;;;;;;6.80;99.90;;;;;;8386982;28;19935;-72
2023/02/15 22:21:21;;;;;;;;;;;6.60;99.90;;;;;;8370919;28;19976;-72
2023/02/15 22:25:25;;;;;;;;;;;6.50;99.90;;;;;;8372774;28;20299;-72
2023/02/15 22:29:27;;;;;;;;;;;6.40;99.90;;;;;;8385573;28;19924;-72
2023/02/15 22:33:30;;;;;;;;;;;6.40;99.90;;;;;;8385625;28;19931;-72
2023/02/15 22:37:32;;;;;;;;;;;6.40;99.90;;;;;;8393532;28;19931;-72
2023/02/15 22:41:33;;;;;;;;;;;6.40;99.90;;;;;;8364839;28;19925;-72
2023/02/15 22:45:35;;;;;;;;;;;6.40;99.90;;;;;;8384914;28;19943;-72
2023/02/15 22:49:37;;;;;;;;;;;6.30;99.90;;;;;;8368325;28;20338;-72
2023/02/15 22:53:38;;;;;;;;;;;6.30;99.90;;;;;;8384153;28;19924;-72
2023/02/15 22:57:40;;;;;;;;;;;6.20;99.90;;;;;;8385740;28;19924;-72
2023/02/15 23:01:42;;;;;;;;;;;6.10;99.90;;;;;;8391283;28;19928;-72
2023/02/15 23:05:44;;;;;;;;;;;6.00;99.90;;;;;;8393645;28;19931;-72
2023/02/15 23:09:46;;;;;;;;;;;5.90;99.90;;;;;;8406984;28;19924;-72
2023/02/15 23:13:48;;;;;;;;;;;5.90;99.90;;;;;;8388845;28;20385;-72
2023/02/15 23:17:50;;;;;;;;;;;5.80;99.90;;;;;;8385487;28;19931;-72
2023/02/15 23:21:52;;;;;;;;;;;5.80;99.90;;;;;;8386958;28;19924;-72
2023/02/15 23:25:54;;;;;;;;;;;5.70;99.90;;;;;;8389491;28;20281;-72
2023/02/15 23:29:55;;;;;;;;;;;5.60;99.90;;;;;;8387728;28;19967;-72
2023/02/15 23:41:17;;;;;;;;;;;5.40;99.90;;;;;;8383824;28;22691;-72
2023/02/15 23:43:31;;;;;;;;;;;5.30;99.90;;;;;;8378715;28;20321;-72
2023/02/15 23:51:56;;;;;;;;;;;5.20;99.90;;;;;;8378167;28;19939;-72
2023/02/15 23:55:58;;;;;;;;;;;5.20;99.90;;;;;;8382479;28;19924;-72
2023/02/15 23:59:59;;;;;;;;;;;5.20;99.90;;;;;;8383045;28;19925;-72
